createdAt,value
2023-03-26T13:00:50.653Z,10.55
2023-03-26T13:02:32.516Z,9.63
2023-03-26T13:04:00.585Z,9.68
2023-03-26T13:05:08.548Z,9.30
2023-03-26T13:06:48.556Z,9.18
2023-03-26T13:08:11.422Z,8.70
2023-03-26T13:09:24.095Z,9.65
2023-03-26T13:10:29.410Z,8.82
2023-03-26T13:11:43.355Z,10.13
2023-03-26T13:12:57.134Z,9.68
2023-03-26T13:14:14.150Z,9.73
2023-03-26T13:15:30.676Z,8.70
2023-03-26T13:17:46.619Z,8.95
2023-03-26T13:19:05.453Z,9.88
2023-03-26T13:20:16.393Z,9.35
2023-03-26T13:21:20.823Z,9.50
2023-03-26T13:22:45.983Z,9.32
2023-03-26T13:24:10.813Z,8.73
2023-03-26T13:25:21.573Z,9.95
2023-03-26T13:26:38.203Z,9.15
2023-03-26T13:27:55.262Z,10.15
2023-03-26T13:29:02.816Z,8.90
2023-03-26T13:30:31.397Z,9.07
2023-03-26T13:31:49.332Z,8.77
2023-03-26T13:33:05.116Z,10.45
2023-03-26T13:34:26.465Z,11.43
2023-03-26T13:36:00.229Z,12.00
2023-03-26T13:37:25.118Z,12.18
2023-03-26T13:38:59.253Z,13.40
2023-03-26T13:40:32.988Z,13.70
2023-03-26T13:41:53.592Z,11.80
2023-03-26T13:43:14.036Z,12.35
2023-03-26T13:44:46.774Z,12.55
2023-03-26T13:46:08.873Z,12.50
2023-03-26T13:47:19.880Z,14.98
2023-03-26T13:48:27.683Z,13.52
2023-03-26T13:49:37.407Z,14.65
2023-03-26T13:50:42.971Z,14.57
2023-03-26T13:51:52.673Z,16.92
2023-03-26T13:53:06.865Z,15.60
2023-03-26T13:54:50.810Z,15.15
2023-03-26T13:56:01.470Z,16.70
2023-03-26T13:57:29.583Z,13.52
2023-03-26T13:58:38.877Z,16.23
2023-03-26T14:00:22.095Z,15.88
2023-03-26T14:01:41.374Z,14.35
2023-03-26T14:02:47.919Z,13.30
2023-03-26T14:04:08.456Z,13.95
2023-03-26T14:05:33.640Z,15.80
2023-03-26T14:06:46.851Z,13.60
2023-03-26T14:08:14.577Z,14.85
2023-03-26T14:09:27.147Z,16.23
2023-03-26T14:10:37.025Z,17.15
2023-03-26T14:12:00.340Z,16.17
2023-03-26T14:13:16.639Z,16.98
2023-03-26T14:14:29.140Z,15.27
2023-03-26T14:15:44.901Z,16.15
2023-03-26T14:16:54.667Z,14.77
2023-03-26T14:18:24.340Z,17.42
2023-03-26T14:19:53.889Z,19.50
2023-03-26T14:21:29.584Z,16.30
2023-03-26T14:22:47.534Z,16.35
2023-03-26T14:23:58.620Z,15.90
2023-03-26T14:25:17.099Z,19.85
2023-03-26T14:26:32.054Z,16.10
2023-03-26T14:28:11.295Z,18.27
2023-03-26T14:29:13.173Z,16.42
2023-03-26T14:30:23.920Z,15.95
2023-03-26T14:31:51.002Z,16.90
2023-03-26T14:33:27.069Z,19.27
2023-03-26T14:34:52.320Z,15.45
2023-03-26T14:36:13.660Z,18.77
2023-03-26T14:37:53.659Z,15.85
2023-03-26T14:39:17.199Z,16.65
2023-03-26T14:40:25.430Z,15.88
2023-03-26T14:41:40.544Z,18.95
2023-03-26T14:43:01.702Z,19.00
2023-03-26T14:44:12.566Z,18.33
2023-03-26T14:45:23.570Z,18.48
2023-03-26T14:46:56.792Z,18.63
2023-03-26T14:48:20.481Z,16.80
2023-03-26T14:49:49.936Z,18.30
2023-03-26T14:51:10.048Z,17.23
2023-03-26T14:52:20.771Z,16.33
2023-03-26T14:53:28.086Z,17.60
2023-03-26T14:54:34.557Z,18.73
2023-03-26T14:55:49.517Z,17.90
2023-03-26T14:56:53.927Z,15.98
2023-03-26T14:57:58.860Z,17.05
2023-03-26T14:59:12.674Z,17.70
2023-03-26T15:00:34.948Z,18.85
2023-03-26T15:02:10.658Z,17.15
2023-03-26T15:03:31.017Z,15.40
2023-03-26T15:04:48.126Z,14.85
2023-03-26T15:06:12.774Z,14.73
2023-03-26T15:07:20.792Z,16.05
2023-03-26T15:08:33.355Z,16.65
2023-03-26T15:09:57.435Z,18.48
2023-03-26T15:11:27.184Z,15.07
2023-03-26T15:12:32.938Z,15.45
2023-03-26T15:14:19.252Z,16.58
2023-03-26T15:15:26.834Z,14.07
2023-03-26T15:16:37.779Z,13.70
2023-03-26T15:17:58.619Z,12.27
2023-03-26T15:19:22.106Z,11.50
2023-03-26T15:20:41.855Z,11.70
2023-03-26T15:21:55.885Z,11.02
2023-03-26T15:23:00.769Z,10.98
2023-03-26T15:24:17.676Z,10.52
2023-03-26T15:25:38.119Z,10.15
2023-03-26T15:26:42.959Z,10.60
2023-03-26T15:28:22.503Z,9.50
2023-03-26T15:30:08.759Z,8.90
2023-03-26T15:31:26.405Z,8.50
2023-03-26T15:33:05.341Z,7.85
2023-03-26T15:34:25.928Z,8.98
2023-03-26T15:35:33.524Z,7.45
2023-03-26T15:36:53.844Z,9.07
2023-03-26T15:38:23.270Z,7.85
2023-03-26T15:40:01.408Z,8.07
2023-03-26T15:41:31.046Z,7.93
2023-03-26T15:42:51.752Z,7.15
2023-03-26T15:44:23.422Z,7.70
2023-03-26T15:45:31.493Z,7.50
2023-03-26T15:46:53.496Z,7.00
2023-03-26T15:48:11.889Z,7.60
2023-03-26T15:49:16.652Z,7.40
2023-03-26T15:50:39.701Z,7.75
2023-03-26T15:52:09.335Z,8.05
2023-03-26T15:53:48.235Z,7.90
2023-03-26T15:55:07.566Z,7.90
2023-03-26T15:56:16.155Z,7.38
2023-03-26T15:57:23.588Z,6.88
2023-03-26T15:58:31.077Z,7.53
2023-03-26T15:59:52.519Z,7.40
2023-03-26T16:01:27.155Z,6.90
2023-03-26T16:02:29.803Z,7.22
2023-03-26T16:04:22.865Z,6.95
2023-03-26T16:05:32.335Z,7.13
2023-03-26T16:06:34.578Z,7.78
2023-03-26T16:07:39.186Z,7.18
2023-03-26T16:09:04.885Z,7.65
2023-03-26T16:10:30.820Z,7.13
2023-03-26T16:11:57.939Z,7.10
2023-03-26T16:13:27.347Z,7.35
2023-03-26T16:14:35.407Z,7.25
2023-03-26T16:15:37.653Z,7.15
2023-03-26T16:16:53.039Z,7.22
2023-03-26T16:18:11.824Z,6.80
2023-03-26T16:19:20.189Z,8.23
2023-03-26T16:20:33.495Z,6.78
2023-03-26T16:21:42.902Z,6.70
2023-03-26T16:22:53.435Z,6.78
2023-03-26T16:24:20.555Z,6.35
2023-03-26T16:25:31.433Z,7.43
2023-03-26T16:27:08.069Z,6.45
2023-03-26T16:28:26.533Z,6.63
2023-03-26T16:29:30.729Z,6.40
2023-03-26T16:30:33.118Z,7.03
2023-03-26T16:31:38.239Z,7.15
2023-03-26T16:32:56.337Z,6.55
2023-03-26T16:34:09.293Z,7.47
2023-03-26T16:35:14.390Z,6.38
2023-03-26T16:36:37.014Z,6.63
2023-03-26T16:37:50.092Z,6.47
2023-03-26T16:39:17.285Z,7.10
2023-03-26T16:40:22.642Z,6.57
2023-03-26T16:41:30.538Z,6.05
2023-03-26T16:42:40.108Z,6.30
2023-03-26T16:43:55.955Z,6.38
2023-03-26T16:45:14.706Z,6.07
2023-03-26T16:46:36.706Z,6.05
2023-03-26T16:48:06.463Z,6.47
2023-03-26T16:49:21.635Z,5.93
2023-03-26T16:50:37.193Z,6.10
2023-03-26T16:51:39.392Z,5.40
2023-03-26T16:52:55.040Z,5.35
2023-03-26T16:54:39.793Z,5.82
2023-03-26T16:55:57.888Z,5.93
2023-03-26T16:57:17.295Z,5.72
2023-03-26T16:58:41.042Z,5.90
2023-03-26T17:00:08.653Z,5.47
2023-03-26T17:01:43.151Z,5.35
2023-03-26T17:02:57.009Z,4.65
2023-03-26T17:04:03.036Z,5.15
2023-03-26T17:05:18.960Z,5.30
2023-03-26T17:06:30.770Z,5.75
2023-03-26T17:07:42.002Z,4.40
2023-03-26T17:09:13.395Z,5.28
2023-03-26T17:10:37.584Z,4.45
2023-03-26T17:12:08.756Z,4.70
2023-03-26T17:13:23.342Z,4.25
2023-03-26T17:14:25.512Z,4.50
2023-03-26T17:15:43.170Z,4.57
2023-03-26T17:17:25.634Z,4.60
2023-03-26T17:18:50.027Z,4.63
2023-03-26T17:20:23.662Z,5.32
2023-03-26T17:22:01.375Z,4.10
2023-03-26T17:23:22.162Z,4.53
2023-03-26T17:24:27.960Z,4.75
2023-03-26T17:25:55.177Z,4.43
2023-03-26T17:27:25.112Z,4.15
2023-03-26T17:28:54.914Z,3.90
2023-03-26T17:30:32.420Z,5.50
2023-03-26T17:31:40.370Z,4.38
2023-03-26T17:33:04.007Z,4.05
2023-03-26T17:34:49.232Z,4.93
2023-03-26T17:36:11.942Z,4.78
2023-03-26T17:37:17.008Z,4.43
2023-03-26T17:38:24.732Z,3.85
2023-03-26T17:39:38.873Z,4.28
2023-03-26T17:41:00.311Z,4.70
2023-03-26T17:42:19.201Z,4.65
2023-03-26T17:43:53.099Z,4.15
2023-03-26T17:45:17.773Z,4.18
2023-03-26T17:46:33.188Z,4.60
2023-03-26T17:47:39.922Z,3.85
2023-03-26T17:48:47.190Z,4.13
2023-03-26T17:49:54.020Z,4.95
2023-03-26T17:51:02.925Z,4.03
2023-03-26T17:52:41.853Z,4.05
2023-03-26T17:53:43.905Z,3.92
2023-03-26T17:54:48.168Z,4.15
2023-03-26T17:55:51.615Z,4.32
2023-03-26T17:56:56.605Z,4.43
2023-03-26T17:58:07.452Z,4.97
2023-03-26T17:59:23.211Z,5.18
2023-03-26T18:00:47.184Z,4.78
2023-03-26T18:01:56.283Z,5.25
2023-03-26T18:03:08.004Z,5.20
2023-03-26T18:04:19.838Z,5.10
2023-03-26T18:05:25.073Z,5.47
2023-03-26T18:06:46.723Z,5.63
2023-03-26T18:08:20.054Z,5.63
2023-03-26T18:09:24.851Z,5.55
2023-03-26T18:10:49.641Z,5.78
2023-03-26T18:12:04.239Z,5.57
2023-03-26T18:13:41.360Z,6.15
2023-03-26T18:15:19.956Z,5.45
2023-03-26T18:16:25.634Z,5.80
2023-03-26T18:17:38.547Z,5.80
2023-03-26T18:18:58.055Z,5.50
2023-03-26T18:20:10.007Z,6.40
2023-03-26T18:21:19.817Z,5.68
2023-03-26T18:22:28.598Z,6.13
2023-03-26T18:23:37.822Z,5.80
2023-03-26T18:24:42.254Z,5.57
2023-03-26T18:25:52.585Z,5.85
2023-03-26T18:27:16.896Z,6.50
2023-03-26T18:28:18.678Z,5.95
2023-03-26T18:29:35.611Z,5.32
2023-03-26T18:30:47.439Z,6.28
2023-03-26T18:31:54.280Z,5.80
2023-03-26T18:33:14.069Z,5.70
2023-03-26T18:34:20.619Z,5.70
2023-03-26T18:35:24.268Z,5.38
2023-03-26T18:36:30.453Z,5.93
2023-03-26T18:37:34.455Z,5.65
2023-03-26T18:40:02.312Z,5.00
2023-03-26T18:41:06.695Z,4.63
2023-03-26T18:43:34.914Z,6.15
2023-03-26T18:44:37.342Z,5.20
2023-03-26T18:45:40.619Z,4.80
2023-03-26T18:46:43.622Z,4.38
2023-03-26T18:47:47.915Z,5.45
2023-03-26T18:48:49.871Z,4.82
2023-03-26T18:49:55.764Z,5.45
2023-03-26T18:51:05.987Z,6.32
2023-03-26T18:52:14.480Z,6.00
2023-03-26T18:53:32.501Z,5.55
2023-03-26T18:54:36.680Z,5.32
2023-03-26T18:55:39.753Z,5.25
2023-03-26T18:56:43.837Z,5.10
2023-03-26T18:57:51.617Z,4.88
2023-03-26T18:58:57.868Z,5.03
2023-03-26T19:00:17.339Z,5.18
2023-03-26T19:01:25.955Z,5.40
2023-03-26T19:02:28.310Z,6.05
2023-03-26T19:03:36.367Z,5.18
2023-03-26T19:04:38.671Z,5.07
2023-03-26T19:05:41.049Z,5.25
2023-03-26T19:06:44.352Z,5.40
2023-03-26T19:07:47.382Z,5.60
2023-03-26T19:08:49.713Z,5.22
2023-03-26T19:09:56.422Z,4.75
2023-03-26T19:11:02.438Z,5.68
2023-03-26T19:12:07.728Z,4.68
2023-03-26T19:13:15.219Z,5.57
2023-03-26T19:14:19.773Z,5.20
2023-03-26T19:15:23.289Z,5.20
2023-03-26T19:16:29.964Z,5.13
2023-03-26T19:17:38.824Z,5.38
2023-03-26T19:18:44.154Z,4.97
2023-03-26T19:19:46.363Z,5.20
2023-03-26T19:20:48.172Z,4.68
2023-03-26T19:21:50.779Z,5.70
2023-03-26T19:22:53.532Z,5.00
2023-03-26T19:23:56.479Z,5.07
2023-03-26T19:25:01.444Z,5.15
2023-03-26T19:26:07.860Z,4.25
2023-03-26T19:27:11.237Z,4.47
2023-03-26T19:28:22.871Z,4.50
2023-03-26T19:29:28.610Z,4.93
2023-03-26T19:30:33.986Z,4.85
2023-03-26T19:31:39.094Z,3.92
2023-03-26T19:32:41.228Z,4.70
2023-03-26T19:33:44.559Z,4.57
2023-03-26T19:34:48.453Z,4.50
2023-03-26T19:36:17.936Z,3.85
2023-03-26T19:37:25.459Z,3.88
2023-03-26T19:38:39.396Z,4.95
2023-03-26T19:39:44.378Z,4.03
2023-03-26T19:40:46.490Z,4.65
2023-03-26T19:41:51.735Z,4.20
2023-03-26T19:42:53.792Z,4.55
2023-03-26T19:43:59.878Z,3.75
2023-03-26T19:45:04.311Z,4.20
2023-03-26T19:46:06.570Z,4.00
2023-03-26T19:47:35.231Z,4.38
2023-03-26T19:48:45.897Z,4.55
2023-03-26T19:49:56.279Z,4.18
2023-03-26T19:51:05.019Z,4.22
2023-03-26T19:52:15.194Z,4.32
2023-03-26T19:53:25.555Z,4.22
2023-03-26T19:55:29.438Z,3.80
2023-03-26T19:56:31.683Z,4.43
2023-03-26T19:57:38.144Z,4.13
2023-03-26T19:58:41.761Z,3.80
2023-03-26T19:59:43.677Z,4.47
2023-03-26T20:00:53.135Z,3.92
2023-03-26T20:01:55.081Z,4.40
2023-03-26T20:02:57.828Z,5.25
2023-03-26T20:04:07.589Z,4.28
2023-03-26T20:05:19.586Z,4.30
2023-03-26T20:06:30.821Z,3.88
2023-03-26T20:07:40.183Z,4.05
2023-03-26T20:08:42.895Z,5.55
2023-03-26T20:09:45.588Z,4.20
2023-03-26T20:10:47.584Z,4.18
2023-03-26T20:11:50.431Z,4.38
2023-03-26T20:12:52.789Z,4.15
2023-03-26T20:13:54.645Z,4.28
2023-03-26T20:14:56.614Z,4.50
2023-03-26T20:16:07.422Z,4.10
2023-03-26T20:17:14.587Z,4.82
2023-03-26T20:18:16.383Z,3.90
2023-03-26T20:19:19.269Z,4.43
2023-03-26T20:20:24.652Z,4.25
2023-03-26T20:21:26.750Z,4.85
2023-03-26T20:22:28.666Z,4.30
2023-03-26T20:23:30.561Z,4.63
2023-03-26T20:24:33.644Z,4.13
2023-03-26T20:25:49.265Z,4.63
2023-03-26T20:26:51.244Z,4.05
2023-03-26T20:27:55.445Z,4.57
2023-03-26T20:28:57.297Z,4.70
2023-03-26T20:29:59.140Z,4.13
2023-03-26T20:31:01.246Z,3.97
2023-03-26T20:32:06.670Z,4.13
2023-03-26T20:33:17.118Z,4.40
2023-03-26T20:34:23.684Z,4.47
2023-03-26T20:35:35.957Z,4.47
2023-03-26T20:36:39.242Z,4.43
2023-03-26T20:37:41.964Z,3.97
2023-03-26T20:38:45.198Z,4.95
2023-03-26T20:39:47.124Z,4.30
2023-03-26T20:40:49.708Z,4.00
2023-03-26T20:41:53.647Z,4.90
2023-03-26T20:42:55.569Z,4.00
2023-03-26T20:43:57.502Z,3.75
2023-03-26T20:44:59.322Z,4.68
2023-03-26T20:46:01.865Z,4.90
2023-03-26T20:47:03.929Z,4.30
2023-03-26T20:48:06.164Z,4.30
2023-03-26T20:49:08.116Z,4.55
2023-03-26T20:50:15.450Z,4.57
2023-03-26T20:51:17.944Z,4.25
2023-03-26T20:52:19.773Z,3.75
2023-03-26T20:53:21.552Z,4.57
2023-03-26T20:54:25.795Z,4.40
2023-03-26T20:55:28.457Z,4.05
2023-03-26T20:56:30.511Z,4.72
2023-03-26T20:57:33.772Z,4.68
2023-03-26T20:58:35.872Z,4.85
2023-03-26T20:59:37.716Z,4.53
2023-03-26T21:00:39.884Z,5.47
2023-03-26T21:01:42.279Z,4.00
2023-03-26T21:02:44.286Z,3.80
2023-03-26T21:03:46.570Z,4.30
2023-03-26T21:04:48.415Z,3.85
2023-03-26T21:05:52.516Z,4.57
2023-03-26T21:07:00.213Z,3.83
2023-03-26T21:08:05.854Z,4.15
2023-03-26T21:09:14.981Z,4.30
2023-03-26T21:10:18.534Z,3.88
2023-03-26T21:11:27.774Z,3.90
2023-03-26T21:12:39.249Z,3.75
2023-03-26T21:13:50.810Z,3.97
2023-03-26T21:14:55.951Z,3.58
2023-03-26T21:16:00.438Z,3.65
2023-03-26T21:17:03.278Z,4.00
2023-03-26T21:18:05.745Z,3.80
2023-03-26T21:19:10.311Z,3.28
2023-03-26T21:20:13.575Z,4.13
2023-03-26T21:21:35.859Z,3.60
2023-03-26T21:22:49.249Z,3.58
2023-03-26T21:24:17.349Z,4.18
2023-03-26T21:25:27.396Z,4.38
2023-03-26T21:26:44.127Z,3.83
2023-03-26T21:27:55.647Z,4.00
2023-03-26T21:28:59.503Z,3.78
2023-03-26T21:30:02.027Z,3.80
2023-03-26T21:31:06.216Z,3.75
2023-03-26T21:32:13.839Z,3.85
2023-03-26T21:33:15.634Z,4.45
2023-03-26T21:34:17.897Z,3.25
2023-03-26T21:35:20.505Z,3.65
2023-03-26T21:36:23.239Z,3.72
2023-03-26T21:37:25.875Z,3.97
2023-03-26T21:38:28.087Z,3.05
2023-03-26T21:39:30.494Z,3.63
2023-03-26T21:40:33.142Z,4.40
2023-03-26T21:42:05.262Z,4.05
2023-03-26T21:43:11.733Z,3.72
2023-03-26T21:44:14.599Z,4.97
2023-03-26T21:45:17.577Z,3.63
2023-03-26T21:46:20.091Z,3.88
2023-03-26T21:47:22.166Z,4.18
2023-03-26T21:48:24.502Z,4.05
2023-03-26T21:49:26.913Z,3.67
2023-03-26T21:50:29.214Z,3.92
2023-03-26T21:51:32.308Z,3.35
2023-03-26T21:52:35.119Z,3.90
2023-03-26T21:53:37.364Z,3.80
2023-03-26T21:54:40.981Z,4.05
2023-03-26T21:56:18.252Z,4.00
2023-03-26T21:57:32.180Z,3.90
2023-03-26T21:59:15.105Z,3.95
2023-03-26T22:00:18.984Z,3.53
2023-03-26T22:01:32.201Z,3.70
2023-03-26T22:03:06.194Z,3.40
2023-03-26T22:04:11.251Z,4.18
2023-03-26T22:05:23.367Z,4.45
2023-03-26T22:06:27.999Z,4.57
2023-03-26T22:08:01.789Z,4.20
2023-03-26T22:09:04.803Z,4.65
2023-03-26T22:10:07.234Z,5.15
2023-03-26T22:11:11.486Z,4.40
2023-03-26T22:12:13.346Z,4.85
2023-03-26T22:13:15.301Z,4.90
2023-03-26T22:14:18.174Z,4.85
2023-03-26T22:15:20.626Z,4.32
2023-03-26T22:16:25.559Z,5.28
2023-03-26T22:17:27.841Z,5.35
2023-03-26T22:18:30.292Z,4.63
2023-03-26T22:19:32.274Z,4.72
2023-03-26T22:20:34.351Z,4.53
2023-03-26T22:21:36.236Z,4.65
2023-03-26T22:22:38.110Z,4.28
2023-03-26T22:23:40.225Z,4.50
2023-03-26T22:24:42.385Z,4.70
2023-03-26T22:25:45.592Z,4.38
2023-03-26T22:26:47.499Z,4.40
2023-03-26T22:27:50.755Z,4.45
2023-03-26T22:28:53.382Z,4.35
2023-03-26T22:29:55.673Z,4.63
2023-03-26T22:30:58.360Z,4.95
2023-03-26T22:32:00.414Z,4.03
2023-03-26T22:33:02.252Z,4.43
2023-03-26T22:34:04.341Z,4.63
2023-03-26T22:35:07.240Z,4.53
2023-03-26T22:36:23.169Z,4.20
2023-03-26T22:37:26.077Z,4.40
2023-03-26T22:38:27.885Z,4.28
2023-03-26T22:39:29.802Z,4.55
2023-03-26T22:40:31.980Z,4.18
2023-03-26T22:41:33.792Z,5.18
2023-03-26T22:42:36.696Z,4.95
2023-03-26T22:43:39.083Z,4.40
2023-03-26T22:44:41.415Z,4.78
2023-03-26T22:45:49.947Z,4.28
2023-03-26T22:46:52.600Z,4.80
2023-03-26T22:48:03.439Z,3.90
2023-03-26T22:49:06.452Z,4.93
2023-03-26T22:50:10.872Z,4.72
2023-03-26T22:51:12.912Z,3.75
2023-03-26T22:52:14.825Z,4.47
2023-03-26T22:53:16.945Z,4.65
2023-03-26T22:54:18.898Z,4.25
2023-03-26T22:55:29.060Z,4.35
2023-03-26T22:56:31.991Z,4.70
2023-03-26T22:57:34.209Z,4.72
2023-03-26T22:58:36.381Z,5.30
2023-03-26T22:59:38.243Z,5.10
2023-03-26T23:00:40.144Z,4.80
2023-03-26T23:01:42.084Z,5.20
2023-03-26T23:02:47.614Z,4.78
2023-03-26T23:03:49.799Z,4.57
2023-03-26T23:04:52.752Z,4.72
2023-03-26T23:05:58.182Z,4.72
2023-03-26T23:07:00.267Z,4.40
2023-03-26T23:08:02.071Z,4.30
2023-03-26T23:09:07.232Z,4.75
2023-03-26T23:10:11.286Z,4.50
2023-03-26T23:12:19.149Z,4.65
2023-03-26T23:13:22.084Z,4.90
2023-03-26T23:14:24.309Z,4.78
2023-03-26T23:15:26.242Z,5.00
2023-03-26T23:16:28.364Z,5.05
2023-03-26T23:17:30.314Z,4.93
2023-03-26T23:18:32.333Z,5.57
2023-03-26T23:19:34.688Z,5.35
2023-03-26T23:20:39.408Z,5.25
2023-03-26T23:21:41.555Z,5.90
2023-03-26T23:22:43.824Z,5.60
2023-03-26T23:23:46.312Z,5.43
2023-03-26T23:24:48.304Z,5.70
2023-03-26T23:25:51.989Z,5.00
2023-03-26T23:26:53.858Z,4.90
2023-03-26T23:27:55.750Z,5.60
2023-03-26T23:28:57.537Z,5.63
2023-03-26T23:29:59.504Z,6.43
2023-03-26T23:31:04.450Z,5.07
2023-03-26T23:32:24.026Z,6.15
2023-03-26T23:33:31.768Z,5.63
2023-03-26T23:34:34.159Z,5.70
2023-03-26T23:35:36.232Z,5.28
2023-03-26T23:36:38.086Z,5.32
2023-03-26T23:37:42.732Z,5.05
2023-03-26T23:38:49.049Z,6.03
2023-03-26T23:39:51.942Z,4.68
2023-03-26T23:40:57.442Z,6.03
2023-03-26T23:41:59.582Z,5.50
2023-03-26T23:43:01.466Z,5.45
2023-03-26T23:44:04.174Z,5.95
2023-03-26T23:45:06.855Z,5.32
2023-03-26T23:46:12.019Z,5.53
2023-03-26T23:47:16.849Z,6.45
2023-03-26T23:48:23.941Z,5.38
2023-03-26T23:49:26.826Z,5.63
2023-03-26T23:50:29.596Z,5.65
2023-03-26T23:51:32.548Z,5.75
2023-03-26T23:52:34.570Z,6.03
2023-03-26T23:53:36.592Z,5.50
2023-03-26T23:54:38.561Z,4.72
2023-03-26T23:55:47.545Z,5.10
2023-03-26T23:56:49.440Z,5.20
2023-03-26T23:57:51.713Z,5.88
2023-03-26T23:58:54.017Z,5.03
2023-03-26T23:59:56.459Z,5.45
